Time;durP1;ratioP1;P1;durP2;ratioP2;P2;SDS_P1;SDS_P2;PMS_P1;PMS_P2;Temp;Humidity;BMP_temperature;BMP_pressure;BME280_temperature;BME280_humidity;BME280_pressure;Samples;Min_cycle;Max_cycle;Signal;HPM_P1;HPM_P2
2021/12/25 00:00:19;;;;;;;10.32;9.82;;;;;;;-0.49;100.00;99369.44;4973006;28;20046;-67
2021/12/25 00:02:45;;;;;;;10.43;9.93;;;;;;;-0.46;100.00;99376.97;4972773;28;20070;-67
2021/12/25 00:05:12;;;;;;;10.25;9.75;;;;;;;-0.44;100.00;99373.31;4974155;28;20066;-67
2021/12/25 00:07:38;;;;;;;10.20;9.70;;;;;;;-0.40;100.00;99377.28;4972603;28;20404;-69
2021/12/25 00:10:06;;;;;;;10.20;9.70;;;;;;;-0.28;100.00;99372.78;4972648;28;20109;-69
2021/12/25 00:12:32;;;;;;;10.30;9.80;;;;;;;-0.34;100.00;99379.34;4972573;28;20030;-71
2021/12/25 00:14:58;;;;;;;10.30;9.80;;;;;;;-0.16;100.00;99378.69;4972561;28;20037;-71
2021/12/25 00:17:26;;;;;;;10.55;10.05;;;;;;;0.23;100.00;99380.41;4974204;28;20440;-70
2021/12/25 00:19:52;;;;;;;10.35;9.85;;;;;;;0.48;100.00;99381.63;4972589;28;20062;-70
2021/12/25 00:22:17;;;;;;;10.10;9.60;;;;;;;-0.04;100.00;99369.81;4972656;28;20050;-67
2021/12/25 00:24:44;;;;;;;10.25;9.75;;;;;;;-0.28;100.00;99373.63;4972569;28;20480;-68
2021/12/25 00:27:40;;;;;;;10.20;9.70;;;;;;;-0.32;100.00;99374.81;4972757;28;20222;-70
2021/12/25 00:35:16;;;;;;;10.57;10.07;;;;;;;-0.21;100.00;99381.72;4965851;28;20032;-72
2021/12/25 00:37:41;;;;;;;10.85;10.25;;;;;;;-0.12;100.00;99400.94;4972370;28;20105;-68
2021/12/25 00:40:07;;;;;;;11.68;10.98;;;;;;;-0.18;100.00;99406.69;4973786;28;20109;-70
2021/12/25 00:42:33;;;;;;;10.82;10.32;;;;;;;-0.22;100.00;99402.69;4972464;28;20107;-68
2021/12/25 00:44:58;;;;;;;10.98;10.38;;;;;;;-0.31;100.00;99402.53;4972233;28;20544;-68
2021/12/25 00:47:24;;;;;;;10.35;9.85;;;;;;;-0.19;100.00;99399.81;4972600;28;20071;-69
2021/12/25 00:49:49;;;;;;;10.65;10.15;;;;;;;-0.40;100.00;99403.31;4972367;28;20038;-71
2021/12/25 00:52:15;;;;;;;11.25;10.65;;;;;;;-0.51;100.00;99398.22;4973300;28;20485;-71
2021/12/25 00:54:41;;;;;;;9.90;9.50;;;;;;;-0.59;100.00;99398.03;4971139;28;20023;-69
2021/12/25 00:57:06;;;;;;;10.48;9.98;;;;;;;-0.51;100.00;99398.22;4972345;28;20042;-70
2021/12/25 00:59:32;;;;;;;10.85;10.25;;;;;;;-0.44;100.00;99388.94;4972073;28;20540;-70
2021/12/25 01:01:58;;;;;;;10.10;9.60;;;;;;;-0.46;100.00;99393.44;4972364;28;20070;-70
2021/12/25 01:04:25;;;;;;;10.55;10.05;;;;;;;-0.48;100.00;99387.53;4972037;28;20528;-70
2021/12/25 01:06:52;;;;;;;10.45;9.95;;;;;;;-0.40;100.00;99392.09;4972138;28;20031;-69
2021/12/25 01:09:17;;;;;;;11.10;10.50;;;;;;;-0.42;100.00;99389.63;4976147;28;20358;-68
2021/12/25 01:11:47;;;;;;;10.38;9.88;;;;;;;-0.41;100.00;99388.66;4976143;28;20027;-69
2021/12/25 01:14:33;;;;;;;10.73;10.18;;;;;;;-0.45;100.00;99383.84;4974464;28;20377;-71
2021/12/25 01:34:27;;;;;;;9.70;9.30;;;;;;;-0.91;100.00;99387.75;4975781;28;20374;-69
2021/12/25 01:49:14;;;;;;;9.93;9.43;;;;;;;-0.88;100.00;99390.13;4975322;28;20042;-71
2021/12/25 01:51:39;;;;;;;9.55;9.15;;;;;;;-0.87;100.00;99392.59;4976414;28;20051;-70
2021/12/25 01:54:05;;;;;;;9.50;9.10;;;;;;;-0.89;100.00;99384.06;4975389;28;20467;-68
2021/12/25 01:56:30;;;;;;;10.35;9.82;;;;;;;-0.87;100.00;99392.59;4975265;28;20038;-71
2021/12/25 01:58:56;;;;;;;9.70;9.30;;;;;;;-0.89;100.00;99398.88;4976541;28;20512;-69
2021/12/25 02:01:21;;;;;;;9.85;9.38;;;;;;;-0.90;100.00;99405.03;4975036;28;20038;-71
2021/12/25 02:03:47;;;;;;;9.38;8.98;;;;;;;-0.89;100.00;99406.69;4968662;28;20026;-71
2021/12/25 02:06:13;;;;;;;10.18;9.68;;;;;;;-0.82;100.00;99410.41;4965900;28;20395;-71
2021/12/25 02:08:40;;;;;;;9.20;8.80;;;;;;;-0.81;100.00;99401.63;4976344;28;20125;-69
2021/12/25 02:11:07;;;;;;;9.90;9.43;;;;;;;-0.82;100.00;99406.97;4974878;28;20027;-70
2021/12/25 02:13:33;;;;;;;9.55;9.15;;;;;;;-0.78;100.00;99404.00;4975624;28;20460;-67
2021/12/25 02:16:01;;;;;;;9.75;9.35;;;;;;;-0.89;100.00;99402.28;4974743;28;20054;-72
2021/12/25 02:18:36;;;;;;;10.18;9.68;;;;;;;-0.91;100.00;99405.97;4974526;28;20030;-68
2021/12/25 02:21:16;;;;;;;10.25;9.75;;;;;;;-0.47;100.00;99411.81;4976371;28;20033;-71
2021/12/25 02:23:42;;;;;;;10.32;9.82;;;;;;;-0.44;100.00;99414.13;4976038;28;20062;-68
2021/12/25 02:26:07;;;;;;;10.20;9.70;;;;;;;0.14;100.00;99412.50;4974766;28;20493;-68
2021/12/25 02:28:34;;;;;;;10.10;9.60;;;;;;;0.58;100.00;99404.28;4974555;28;20027;-68
2021/12/25 02:31:03;;;;;;;10.02;9.52;;;;;;;0.49;100.00;99396.31;4974921;28;20098;-69
2021/12/25 02:33:30;;;;;;;9.90;9.50;;;;;;;1.12;100.00;99400.22;4974731;28;20027;-71
2021/12/25 02:35:57;;;;;;;9.60;9.20;;;;;;;0.55;100.00;99390.53;4974372;28;20385;-69
2021/12/25 02:38:25;;;;;;;9.70;9.25;;;;;;;0.74;100.00;99394.13;4974548;28;20156;-70
2021/12/25 02:40:51;;;;;;;9.45;9.05;;;;;;;0.46;100.00;99395.78;4974373;28;20023;-69
2021/12/25 02:43:17;;;;;;;9.20;8.80;;;;;;;0.48;100.00;99391.25;4974607;28;20045;-70
2021/12/25 02:45:42;;;;;;;9.20;8.80;;;;;;;0.22;100.00;99394.41;4969910;28;20073;-71
2021/12/25 02:48:10;;;;;;;9.75;9.25;;;;;;;0.13;100.00;99400.41;4973856;28;20023;-69
2021/12/25 02:50:38;;;;;;;9.63;9.15;;;;;;;0.01;100.00;99396.31;4973999;28;20038;-68
2021/12/25 02:53:06;;;;;;;9.48;9.05;;;;;;;0.03;100.00;99398.78;4974015;28;20042;-68
2021/12/25 02:55:31;;;;;;;10.02;9.52;;;;;;;-0.02;100.00;99402.59;4973973;28;20030;-68
2021/12/25 02:57:57;;;;;;;8.90;8.50;;;;;;;0.22;100.00;99404.84;4974105;28;20045;-70
2021/12/25 03:00:32;;;;;;;9.10;8.70;;;;;;;0.18;100.00;99406.06;4974004;28;20031;-68
2021/12/25 03:03:00;;;;;;;9.15;8.75;;;;;;;0.49;100.00;99417.19;4973951;28;20038;-68
2021/12/25 03:05:26;;;;;;;9.68;9.18;;;;;;;0.97;100.00;99421.53;4974105;28;20436;-67
2021/12/25 03:07:51;;;;;;;8.80;8.40;;;;;;;1.27;100.00;99410.06;4973973;28;20034;-70
2021/12/25 03:10:17;;;;;;;9.00;8.60;;;;;;;1.50;100.00;99412.31;4973803;28;20042;-71
2021/12/25 03:12:50;;;;;;;9.10;8.70;;;;;;;1.60;100.00;99420.91;4970736;28;20031;-69
2021/12/25 03:15:26;;;;;;;8.80;8.40;;;;;;;-0.51;100.00;99423.44;4973736;28;20037;-70
2021/12/25 03:17:53;;;;;;;9.15;8.75;;;;;;;-0.85;100.00;99423.69;4973918;28;20489;-71
2021/12/25 03:20:18;;;;;;;9.60;9.20;;;;;;;-0.95;100.00;99435.84;4973779;28;20089;-67
2021/12/25 03:22:44;;;;;;;10.65;10.15;;;;;;;-0.91;100.00;99434.63;4973709;28;20031;-71
2021/12/25 03:25:12;;;;;;;10.00;9.50;;;;;;;-1.10;100.00;99437.94;4973632;28;20058;-69
2021/12/25 03:27:39;;;;;;;9.93;9.50;;;;;;;-1.11;100.00;99444.06;4973495;28;20027;-69
2021/12/25 03:30:07;;;;;;;10.38;9.88;;;;;;;-1.07;100.00;99450.69;4972853;28;20041;-70
2021/12/25 03:32:33;;;;;;;10.32;9.82;;;;;;;-0.98;100.00;99447.31;4973490;28;20552;-69
2021/12/25 03:34:58;;;;;;;10.40;9.90;;;;;;;-0.93;100.00;99455.59;4973295;28;20051;-72
2021/12/25 03:37:24;;;;;;;10.23;9.73;;;;;;;-0.64;100.00;99454.94;4973144;28;20019;-72
2021/12/25 03:39:49;;;;;;;9.80;9.40;;;;;;;-0.53;100.00;99452.22;4972514;28;20121;-67
2021/12/25 03:42:15;;;;;;;10.50;10.00;;;;;;;-0.46;100.00;99455.13;4971846;28;20444;-71
2021/12/25 03:44:40;;;;;;;9.65;9.20;;;;;;;-0.41;100.00;99455.56;4973183;28;20035;-70
2021/12/25 03:47:21;;;;;;;10.05;9.55;;;;;;;-0.16;100.00;99464.69;4974305;28;20097;-67
2021/12/25 03:58:02;;;;;;;9.30;8.90;;;;;;;0.06;100.00;99487.97;4961495;28;20080;-68
2021/12/25 04:00:30;;;;;;;9.43;9.02;;;;;;;-0.07;100.00;99474.34;4974252;28;20030;-67
2021/12/25 04:03:01;;;;;;;10.05;9.55;;;;;;;-0.11;100.00;99479.00;4973343;28;20023;-69
2021/12/25 04:05:30;;;;;;;9.30;8.90;;;;;;;-0.15;100.00;99479.38;4973025;28;20129;-69
2021/12/25 04:10:22;;;;;;;9.30;8.90;;;;;;;-0.25;100.00;99495.00;4973223;28;20038;-68
2021/12/25 04:12:47;;;;;;;9.50;9.10;;;;;;;-0.11;100.00;99504.25;4972689;28;20023;-70
2021/12/25 04:15:13;;;;;;;9.82;9.32;;;;;;;-0.11;100.00;99507.66;4972756;28;20037;-70
2021/12/25 04:17:38;;;;;;;9.48;9.00;;;;;;;0.05;100.00;99509.78;4972766;28;20110;-69
2021/12/25 04:20:04;;;;;;;9.55;9.13;;;;;;;0.13;100.00;99515.16;4974453;28;20023;-66
2021/12/25 04:22:40;;;;;;;9.57;9.07;;;;;;;-0.35;100.00;99507.16;4971451;28;20066;-70
2021/12/25 04:25:06;;;;;;;9.65;9.15;;;;;;;-0.40;100.00;99525.78;4972573;28;20151;-70
2021/12/25 04:27:32;;;;;;;9.80;9.30;;;;;;;-0.65;100.00;99513.19;4974197;28;20510;-70
2021/12/25 04:30:19;;;;;;;9.63;9.13;;;;;;;-0.23;100.00;99524.34;4972754;28;20117;-68
2021/12/25 05:05:20;;;;;;;9.50;9.07;;;;;;;-0.03;100.00;99561.75;4962795;28;20051;-70
2021/12/25 05:07:45;;;;;;;9.40;9.00;;;;;;;-0.06;100.00;99567.25;4972303;28;20046;-67
2021/12/25 05:10:11;;;;;;;9.88;9.38;;;;;;;0.00;100.00;99564.13;4972200;28;20027;-72
2021/12/25 05:12:36;;;;;;;9.20;8.80;;;;;;;0.24;100.00;99575.06;4973193;28;20082;-67
2021/12/25 05:15:03;;;;;;;9.82;9.32;;;;;;;0.07;100.00;99577.44;4973135;28;20382;-71
2021/12/25 05:17:28;;;;;;;9.98;9.48;;;;;;;0.38;100.00;99583.47;4971948;28;20042;-69
2021/12/25 05:19:55;;;;;;;9.13;8.73;;;;;;;0.34;100.00;99590.72;4972168;28;20031;-69
2021/12/25 05:22:21;;;;;;;9.80;9.30;;;;;;;0.29;100.00;99590.28;4972236;28;20404;-70
2021/12/25 05:24:46;;;;;;;9.52;9.02;;;;;;;0.30;100.00;99599.78;4972056;28;20034;-69
2021/12/25 05:27:14;;;;;;;9.38;8.98;;;;;;;0.40;100.00;99599.81;4972180;28;20023;-70
2021/12/25 05:29:45;;;;;;;9.23;8.82;;;;;;;0.34;100.00;99603.75;4971950;28;20448;-68
2021/12/25 05:32:11;;;;;;;10.05;9.55;;;;;;;-0.29;100.00;99592.66;4971522;28;20053;-71
2021/12/25 05:34:37;;;;;;;10.20;9.70;;;;;;;-0.63;100.00;99590.22;4972022;28;20155;-69
2021/12/25 05:37:03;;;;;;;10.73;10.15;;;;;;;-0.87;100.00;99589.63;4971697;28;20452;-70
2021/12/25 05:39:29;;;;;;;10.77;10.20;;;;;;;-0.69;100.00;99597.72;4971852;28;20449;-70
2021/12/25 05:41:54;;;;;;;10.82;10.23;;;;;;;-0.53;100.00;99598.09;4971763;28;20199;-67
2021/12/25 05:44:20;;;;;;;11.18;10.57;;;;;;;-0.36;100.00;99613.19;4971732;28;20027;-67
2021/12/25 05:46:46;;;;;;;10.65;10.15;;;;;;;-0.21;100.00;99612.84;4971768;28;20389;-69
2021/12/25 05:49:11;;;;;;;10.43;9.93;;;;;;;0.32;100.00;99604.88;4971724;28;20074;-71
2021/12/25 05:51:37;;;;;;;10.38;9.88;;;;;;;0.56;100.00;99615.78;4971707;28;20492;-68
2021/12/25 05:54:02;;;;;;;10.00;9.50;;;;;;;0.34;100.00;99615.97;4973901;28;20102;-72
2021/12/25 05:56:28;;;;;;;9.93;9.43;;;;;;;0.23;100.00;99617.75;4975236;28;20104;-69
2021/12/25 05:58:53;;;;;;;9.65;9.18;;;;;;;0.13;100.00;99619.47;4975370;28;20029;-67
2021/12/25 06:01:19;;;;;;;9.40;9.00;;;;;;;0.05;100.00;99624.50;4975052;28;20377;-71
2021/12/25 06:03:44;;;;;;;9.90;9.40;;;;;;;-0.26;100.00;99628.88;4976365;28;20038;-70
2021/12/25 06:06:10;;;;;;;9.70;9.20;;;;;;;0.10;100.00;99631.94;4974586;28;20054;-66
2021/12/25 06:08:35;;;;;;;9.38;8.98;;;;;;;-0.25;100.00;99632.28;4974904;28;20497;-68
2021/12/25 06:11:03;;;;;;;9.43;9.00;;;;;;;-0.26;100.00;99634.06;4975157;28;20041;-67
2021/12/25 06:13:29;;;;;;;9.23;8.82;;;;;;;-0.08;100.00;99637.75;4973839;28;20035;-70
2021/12/25 06:15:56;;;;;;;9.48;9.05;;;;;;;-0.06;100.00;99630.63;4975514;28;20031;-69
2021/12/25 06:18:21;;;;;;;9.70;9.20;;;;;;;-0.09;100.00;99633.47;4973956;28;20027;-66
2021/12/25 06:20:48;;;;;;;9.32;8.93;;;;;;;0.42;100.00;99631.81;4975272;28;20030;-70
2021/12/25 06:23:13;;;;;;;9.80;9.30;;;;;;;0.59;100.00;99640.78;4975119;28;20026;-69
2021/12/25 06:25:39;;;;;;;9.70;9.20;;;;;;;0.66;100.00;99642.75;4975826;28;20505;-72
2021/12/25 06:28:05;;;;;;;10.07;9.57;;;;;;;0.92;100.00;99643.06;4975017;28;20159;-72
2021/12/25 06:30:30;;;;;;;9.10;8.70;;;;;;;1.03;100.00;99647.38;4973898;28;20035;-67
2021/12/25 06:32:55;;;;;;;9.20;8.80;;;;;;;1.21;100.00;99657.97;4974997;28;20064;-69
2021/12/25 06:35:21;;;;;;;9.35;8.90;;;;;;;1.29;100.00;99661.53;4974458;28;20105;-69
2021/12/25 06:37:47;;;;;;;9.82;9.32;;;;;;;1.40;100.00;99650.16;4975661;28;20034;-67
2021/12/25 06:40:19;;;;;;;8.80;8.40;;;;;;;1.92;100.00;99655.88;4982073;28;20038;-67
2021/12/25 06:42:46;;;;;;;10.13;9.63;;;;;;;2.03;100.00;99654.88;4984352;28;20039;-69
2021/12/25 06:45:12;;;;;;;9.60;9.10;;;;;;;2.39;100.00;99653.25;4974182;28;20457;-68
2021/12/25 06:47:38;;;;;;;9.18;8.77;;;;;;;2.72;100.00;99657.94;4974379;28;20043;-69
2021/12/25 06:50:07;;;;;;;9.48;8.98;;;;;;;2.92;100.00;99661.25;4974262;28;20023;-71
2021/12/25 06:52:34;;;;;;;9.18;8.73;;;;;;;3.08;100.00;99672.88;4957185;28;20047;-68
2021/12/25 06:54:59;;;;;;;9.10;8.70;;;;;;;3.19;100.00;99659.59;4965591;28;20031;-71
2021/12/25 06:57:27;;;;;;;9.75;9.25;;;;;;;3.57;100.00;99658.47;4973626;28;20026;-69
2021/12/25 06:59:53;;;;;;;8.98;8.57;;;;;;;3.82;100.00;99668.19;4974188;28;20493;-69
2021/12/25 07:02:18;;;;;;;9.52;9.02;;;;;;;4.00;100.00;99670.78;4975452;28;20146;-67
2021/12/25 07:04:44;;;;;;;8.77;8.38;;;;;;;4.60;100.00;99673.41;4973081;28;20473;-70
2021/12/25 07:07:10;;;;;;;8.98;8.57;;;;;;;5.08;100.00;99674.59;4974381;28;20031;-68
2021/12/25 07:09:36;;;;;;;8.82;8.43;;;;;;;5.25;100.00;99681.53;4973681;28;20412;-68
2021/12/25 07:12:02;;;;;;;8.77;8.38;;;;;;;5.26;100.00;99677.91;4965429;28;20024;-68
2021/12/25 07:14:27;;;;;;;8.95;8.55;;;;;;;7.15;91.35;99681.91;4974878;28;20503;-67
2021/12/25 07:16:53;;;;;;;8.50;8.10;;;;;;;7.40;90.83;99683.41;4973868;28;20034;-70
2021/12/25 07:19:18;;;;;;;9.25;8.75;;;;;;;9.34;79.17;99694.03;4972862;28;20034;-69
2021/12/25 07:21:44;;;;;;;8.38;7.97;;;;;;;8.48;82.97;99688.47;4973901;28;20031;-67
2021/12/25 07:24:11;;;;;;;7.95;7.60;;;;;;;9.15;80.22;99703.38;4974015;28;20034;-70
2021/12/25 07:26:38;;;;;;;8.18;7.78;;;;;;;7.98;84.39;99699.66;4959058;28;20039;-72
2021/12/25 07:29:03;;;;;;;8.75;8.35;;;;;;;6.82;90.41;99703.16;4972614;28;20030;-68
2021/12/25 07:31:29;;;;;;;8.55;8.15;;;;;;;6.42;92.94;99709.38;4973580;28;20037;-69
2021/12/25 07:33:54;;;;;;;9.57;9.07;;;;;;;6.12;95.77;99724.06;4973836;28;20034;-70
2021/12/25 07:36:20;;;;;;;9.00;8.60;;;;;;;5.72;96.85;99725.66;4971370;28;20035;-67
2021/12/25 07:38:46;;;;;;;8.70;8.30;;;;;;;5.60;98.08;99724.34;4973952;28;20031;-69
2021/12/25 07:41:11;;;;;;;9.45;8.95;;;;;;;5.54;99.44;99740.75;4974274;28;20109;-70
2021/12/25 07:43:37;;;;;;;9.55;9.05;;;;;;;5.49;100.00;99730.72;4973352;28;20046;-71
2021/12/25 07:46:03;;;;;;;9.38;8.98;;;;;;;5.47;100.00;99726.63;4973426;28;20235;-68
2021/12/25 07:48:29;;;;;;;9.68;9.18;;;;;;;5.46;100.00;99727.59;4973364;28;20029;-67
2021/12/25 07:50:55;;;;;;;8.75;8.35;;;;;;;5.38;100.00;99732.84;4974203;28;20106;-68
2021/12/25 07:53:20;;;;;;;9.10;8.70;;;;;;;5.39;100.00;99737.94;4971460;28;20043;-70
2021/12/25 07:55:50;;;;;;;8.90;8.50;;;;;;;5.37;100.00;99741.72;4973562;28;20031;-71
2021/12/25 07:58:18;;;;;;;9.02;8.63;;;;;;;5.34;100.00;99750.75;4973552;28;20037;-68
2021/12/25 08:00:45;;;;;;;8.93;8.52;;;;;;;5.28;100.00;99736.41;4973206;28;20089;-69
2021/12/25 08:03:15;;;;;;;8.70;8.30;;;;;;;5.23;100.00;99735.28;4973078;28;20122;-71
2021/12/25 08:05:42;;;;;;;9.00;8.60;;;;;;;4.83;100.00;99746.44;4971971;28;20035;-69
2021/12/25 08:08:10;;;;;;;9.07;8.65;;;;;;;4.40;100.00;99740.25;4966892;28;20050;-68
2021/12/25 08:10:35;;;;;;;8.77;8.38;;;;;;;4.50;100.00;99734.94;4973030;28;20069;-72
2021/12/25 08:13:01;;;;;;;9.00;8.60;;;;;;;4.52;100.00;99744.28;4973948;28;20042;-68
2021/12/25 08:15:29;;;;;;;9.30;8.88;;;;;;;4.27;100.00;99756.44;4972609;28;20050;-70
2021/12/25 08:17:57;;;;;;;8.95;8.55;;;;;;;4.29;100.00;99769.41;4972933;28;20057;-68
2021/12/25 08:20:24;;;;;;;9.07;8.68;;;;;;;4.37;100.00;99772.09;4972937;28;20027;-69
2021/12/25 08:22:50;;;;;;;9.23;8.82;;;;;;;4.50;100.00;99798.78;4973321;28;20029;-70
2021/12/25 08:25:16;;;;;;;10.10;9.60;;;;;;;4.68;100.00;99788.22;4973277;28;20073;-66
2021/12/25 08:27:44;;;;;;;8.70;8.30;;;;;;;4.80;100.00;99808.00;4972920;28;20401;-67
2021/12/25 08:30:14;;;;;;;9.85;9.35;;;;;;;5.10;100.00;99817.22;4956646;28;20030;-69
2021/12/25 08:32:40;;;;;;;10.60;10.00;;;;;;;5.09;100.00;99827.88;4973392;28;20118;-70
2021/12/25 08:35:08;;;;;;;9.90;9.40;;;;;;;5.11;100.00;99834.63;4972649;28;20027;-69
2021/12/25 08:37:33;;;;;;;10.10;9.60;;;;;;;5.21;100.00;99837.13;4972116;28;20035;-67
2021/12/25 08:39:59;;;;;;;9.50;9.05;;;;;;;5.18;100.00;99827.75;4972435;28;20087;-67
2021/12/25 08:42:25;;;;;;;9.27;8.88;;;;;;;5.26;100.00;99848.84;4972491;28;20015;-72
2021/12/25 08:47:20;;;;;;;9.93;9.43;;;;;;;5.35;100.00;99862.84;4983101;28;20467;-71
2021/12/25 08:49:47;;;;;;;9.40;8.90;;;;;;;5.29;100.00;99866.13;4972101;28;20078;-70
2021/12/25 08:52:17;;;;;;;9.95;9.45;;;;;;;5.23;99.71;99874.63;4971891;28;20046;-69
2021/12/25 08:54:44;;;;;;;9.20;8.80;;;;;;;5.21;98.80;99877.44;4972319;28;20058;-67
2021/12/25 08:57:11;;;;;;;9.48;8.98;;;;;;;5.11;98.17;99876.69;4971818;28;20504;-70
2021/12/25 08:59:38;;;;;;;9.27;8.85;;;;;;;5.09;98.25;99893.59;4972283;28;20082;-69
2021/12/25 09:02:09;;;;;;;10.00;9.50;;;;;;;5.04;98.39;99873.03;4973487;28;20022;-69
2021/12/25 09:04:35;;;;;;;8.88;8.48;;;;;;;5.02;98.19;99885.50;4971903;28;20039;-69
2021/12/25 09:07:01;;;;;;;8.85;8.45;;;;;;;5.34;96.75;99881.41;4972103;28;20030;-71
2021/12/25 09:09:27;;;;;;;10.68;10.05;;;;;;;5.34;96.83;99889.31;4972068;28;20031;-69
2021/12/25 09:11:52;;;;;;;8.80;8.40;;;;;;;5.21;96.20;99898.47;4972326;28;20374;-69
2021/12/25 09:14:18;;;;;;;9.88;9.38;;;;;;;5.15;97.06;99893.81;4971461;28;20391;-68
2021/12/25 09:16:43;;;;;;;9.68;9.18;;;;;;;5.11;96.02;99889.84;4972129;28;20476;-67
2021/12/25 09:19:08;;;;;;;9.60;9.10;;;;;;;5.13;96.92;99885.25;4971837;28;20031;-68
2021/12/25 09:21:34;;;;;;;9.20;8.80;;;;;;;5.12;95.62;99893.28;4972131;28;20019;-69
2021/12/25 09:24:00;;;;;;;9.50;9.00;;;;;;;5.59;93.40;99901.59;4972149;28;20405;-69
2021/12/25 09:26:26;;;;;;;9.30;8.90;;;;;;;5.17;93.95;99906.81;4972055;28;20081;-69
2021/12/25 09:28:51;;;;;;;9.77;9.27;;;;;;;5.22;94.97;99908.00;4973733;28;20031;-71
2021/12/25 09:31:17;;;;;;;9.52;9.02;;;;;;;5.28;95.15;99917.03;4975531;28;20531;-70
2021/12/25 09:33:43;;;;;;;9.43;9.00;;;;;;;5.10;94.67;99913.66;4975270;28;20031;-70
2021/12/25 09:36:08;;;;;;;9.30;8.90;;;;;;;5.10;95.14;99925.00;4975483;28;20106;-69
2021/12/25 09:38:34;;;;;;;10.00;9.50;;;;;;;5.14;94.74;99933.38;4977108;28;20161;-71
2021/12/25 09:41:02;;;;;;;10.18;9.65;;;;;;;4.92;95.92;99932.06;4975579;28;20158;-68
2021/12/25 09:43:28;;;;;;;10.50;9.90;;;;;;;4.88;96.46;99926.31;4975020;28;20023;-71
2021/12/25 09:45:54;;;;;;;9.50;9.00;;;;;;;4.94;96.26;99928.34;4974623;28;20026;-68
2021/12/25 09:48:20;;;;;;;9.20;8.80;;;;;;;4.82;96.32;99931.34;4976521;28;20023;-70
2021/12/25 09:50:46;;;;;;;9.88;9.38;;;;;;;4.83;95.97;99933.00;4975226;28;20023;-70
2021/12/25 09:53:14;;;;;;;9.65;9.15;;;;;;;4.97;95.00;99932.44;4975009;28;20062;-70
2021/12/25 09:55:40;;;;;;;8.90;8.50;;;;;;;5.05;94.20;99943.03;4975270;28;20041;-69
2021/12/25 09:58:06;;;;;;;9.15;8.75;;;;;;;4.98;94.90;99944.63;4975107;28;20081;-70
2021/12/25 10:00:35;;;;;;;9.27;8.88;;;;;;;5.04;94.35;99949.25;4970484;28;20026;-70
2021/12/25 10:03:00;;;;;;;9.15;8.75;;;;;;;5.03;93.43;99942.34;4975335;28;20042;-71
2021/12/25 10:05:30;;;;;;;9.25;8.85;;;;;;;4.93;91.62;99949.53;4976748;28;20501;-70
2021/12/25 10:08:03;;;;;;;9.60;9.10;;;;;;;4.94;90.48;99938.03;4976201;28;20097;-68
2021/12/25 10:10:36;;;;;;;9.97;9.47;;;;;;;5.20;89.83;99954.63;4976325;28;20029;-68
2021/12/25 10:13:02;;;;;;;8.95;8.55;;;;;;;5.27;89.13;99957.47;4962820;28;20316;-70
2021/12/25 10:15:29;;;;;;;8.95;8.55;;;;;;;5.21;88.53;99963.34;4974620;28;20035;-69
2021/12/25 10:17:59;;;;;;;8.88;8.48;;;;;;;5.21;88.33;99960.72;4976362;28;20019;-72
2021/12/25 10:20:27;;;;;;;9.30;8.85;;;;;;;5.15;87.37;99967.44;4976237;28;20022;-70
2021/12/25 10:23:04;;;;;;;9.25;8.85;;;;;;;5.42;86.86;99961.19;4974604;28;20019;-69
2021/12/25 10:25:35;;;;;;;8.85;8.45;;;;;;;5.51;86.63;99962.06;4974520;28;20042;-71
2021/12/25 10:28:06;;;;;;;9.68;9.18;;;;;;;5.54;86.02;99957.31;4974368;28;20481;-69
2021/12/25 10:30:43;;;;;;;9.00;8.60;;;;;;;5.57;85.65;99974.59;4974413;28;20031;-69
2021/12/25 10:33:36;;;;;;;9.00;8.60;;;;;;;5.54;85.21;99967.84;4974533;28;20031;-68
2021/12/25 10:36:24;;;;;;;9.00;8.60;;;;;;;5.48;85.66;99959.75;4974628;28;20137;-66
2021/12/25 10:39:07;;;;;;;9.15;8.73;;;;;;;5.70;84.47;99963.66;4974195;28;20035;-70
2021/12/25 10:41:36;;;;;;;9.32;8.93;;;;;;;5.70;84.47;99967.09;4973425;28;20117;-70
2021/12/25 10:44:41;;;;;;;9.40;8.98;;;;;;;5.70;84.27;99966.28;4974256;28;20035;-71
2021/12/25 10:47:18;;;;;;;9.18;8.77;;;;;;;5.68;84.64;99969.06;4958915;28;20027;-71
2021/12/25 10:49:49;;;;;;;9.23;8.82;;;;;;;5.57;84.00;99960.59;4972171;28;20030;-70
2021/12/25 10:52:26;;;;;;;9.27;8.88;;;;;;;5.52;84.83;99958.47;4972926;28;20049;-70
2021/12/25 10:55:04;;;;;;;8.77;8.38;;;;;;;5.81;84.33;99958.13;4974047;28;20038;-68
2021/12/25 10:57:48;;;;;;;9.40;8.90;;;;;;;5.93;83.18;99956.03;4970178;28;20050;-66
2021/12/25 11:00:20;;;;;;;9.98;9.43;;;;;;;6.00;82.83;99941.25;4974082;28;20440;-69
2021/12/25 11:02:52;;;;;;;9.40;8.90;;;;;;;6.37;81.58;99959.31;4974028;28;20031;-71
2021/12/25 11:05:36;;;;;;;9.02;8.63;;;;;;;6.49;82.27;99962.47;4974002;28;20559;-69
2021/12/25 11:08:07;;;;;;;8.77;8.38;;;;;;;6.41;81.21;99963.28;4968148;28;20050;-68
2021/12/25 11:10:53;;;;;;;8.57;8.18;;;;;;;6.31;81.90;99965.22;4972696;28;20033;-68
2021/12/25 11:13:19;;;;;;;9.98;9.48;;;;;;;6.45;81.70;99956.69;4972400;28;20604;-70
2021/12/25 11:15:45;;;;;;;9.40;8.98;;;;;;;6.28;82.50;99961.09;4973925;28;20035;-72
2021/12/25 11:18:12;;;;;;;9.10;8.70;;;;;;;6.48;81.94;99966.09;4972857;28;20105;-71
2021/12/25 11:20:40;;;;;;;10.02;9.52;;;;;;;6.55;82.69;99975.00;4972471;28;20102;-68
2021/12/25 11:23:09;;;;;;;10.38;9.77;;;;;;;6.36;82.29;99971.66;4973177;28;20473;-68
2021/12/25 11:25:37;;;;;;;9.73;9.23;;;;;;;6.25;81.98;99968.50;4973715;28;20043;-69
2021/12/25 11:28:06;;;;;;;9.75;9.25;;;;;;;6.27;82.90;99980.53;4956803;28;20019;-69
2021/12/25 11:30:34;;;;;;;9.07;8.68;;;;;;;6.10;83.15;99984.09;4957198;28;20050;-71
2021/12/25 11:33:00;;;;;;;10.10;9.57;;;;;;;6.14;82.65;99968.78;4973697;28;20115;-68
2021/12/25 11:35:27;;;;;;;10.48;9.88;;;;;;;6.08;82.71;99960.53;4973158;28;20149;-71
2021/12/25 11:37:55;;;;;;;9.20;8.80;;;;;;;6.04;82.13;99959.22;4973345;28;20106;-68
2021/12/25 11:40:27;;;;;;;9.68;9.18;;;;;;;5.83;82.50;99962.22;4974806;28;20026;-67
2021/12/25 11:42:56;;;;;;;9.02;8.63;;;;;;;5.83;82.33;99975.38;4973248;28;20027;-71
2021/12/25 11:45:28;;;;;;;9.00;8.60;;;;;;;5.65;82.99;99979.06;4974501;28;20469;-72
2021/12/25 11:47:57;;;;;;;9.75;9.25;;;;;;;5.50;82.50;99981.44;4972900;28;20078;-69
2021/12/25 11:50:34;;;;;;;8.90;8.50;;;;;;;5.53;82.52;99989.88;4972571;28;20026;-68
2021/12/25 11:53:16;;;;;;;8.95;8.55;;;;;;;5.55;82.28;99985.28;4972777;28;20050;-68
2021/12/25 11:58:52;;;;;;;8.93;8.50;;;;;;;5.59;81.99;100000.75;4984591;28;20031;-67
2021/12/25 12:01:44;;;;;;;8.60;8.20;;;;;;;5.52;81.35;100005.81;4977081;28;20050;-69
2021/12/25 12:04:09;;;;;;;8.90;8.50;;;;;;;5.66;79.41;100004.44;4972792;28;20361;-70
2021/12/25 12:06:44;;;;;;;8.70;8.30;;;;;;;5.53;78.97;99997.75;4972760;28;20076;-72
2021/12/25 12:09:21;;;;;;;9.60;9.10;;;;;;;5.61;79.10;99994.34;4972945;28;20475;-67
2021/12/25 12:12:09;;;;;;;9.73;9.23;;;;;;;5.44;79.81;99997.88;4972399;28;20026;-68
2021/12/25 12:14:36;;;;;;;9.55;9.05;;;;;;;5.39;80.26;100005.41;4958373;28;20030;-70
2021/12/25 12:17:06;;;;;;;9.00;8.60;;;;;;;5.54;80.01;100009.94;4974102;28;20144;-71
2021/12/25 12:19:32;;;;;;;9.35;8.85;;;;;;;5.45;80.28;100010.88;4958629;28;20023;-70
2021/12/25 12:21:59;;;;;;;9.27;8.77;;;;;;;5.34;81.44;100005.03;4972422;28;20030;-69
2021/12/25 12:24:48;;;;;;;8.77;8.38;;;;;;;5.42;80.97;100021.69;4972604;28;20030;-71
2021/12/25 12:27:37;;;;;;;8.68;8.27;;;;;;;5.40;81.40;100007.88;4972630;28;20448;-69
2021/12/25 12:30:09;;;;;;;9.48;8.98;;;;;;;5.41;81.19;100011.31;4972375;28;20049;-68
2021/12/25 12:32:46;;;;;;;8.90;8.50;;;;;;;5.26;81.94;100011.88;4973845;28;20023;-70
2021/12/25 12:35:37;;;;;;;8.90;8.50;;;;;;;5.20;82.15;100016.91;4972142;28;20034;-67
2021/12/25 12:38:41;;;;;;;10.15;9.55;;;;;;;5.18;82.82;100014.44;4972197;28;20041;-70
2021/12/25 12:41:34;;;;;;;8.82;8.43;;;;;;;5.24;82.95;100015.66;4956032;28;20086;-70
2021/12/25 12:44:24;;;;;;;9.40;8.90;;;;;;;5.18;83.00;100021.50;4972462;28;20046;-71
2021/12/25 12:46:53;;;;;;;8.68;8.27;;;;;;;5.11;83.49;100031.81;4971879;28;20362;-69
2021/12/25 12:49:28;;;;;;;9.52;9.02;;;;;;;4.86;84.58;100022.06;4972443;28;20472;-69
2021/12/25 12:52:21;;;;;;;9.10;8.70;;;;;;;4.36;87.45;100020.72;4972273;28;20117;-68
2021/12/25 12:54:49;;;;;;;8.95;8.55;;;;;;;3.91;89.59;100022.47;4972328;28;20089;-71
2021/12/25 12:57:31;;;;;;;9.60;9.10;;;;;;;4.10;89.20;100023.19;4972205;28;20080;-70
2021/12/25 12:59:56;;;;;;;10.38;9.77;;;;;;;4.37;87.43;100019.75;4972038;28;20035;-70
2021/12/25 13:02:24;;;;;;;9.95;9.45;;;;;;;4.45;86.63;100032.16;4971171;28;20063;-70